createdAt,value
2023-12-28T00:02:18.456Z,92390.63
2023-12-28T00:04:45.256Z,92392.47
2023-12-28T00:07:15.066Z,92400.25
2023-12-28T00:09:42.110Z,92386.00
2023-12-28T00:12:08.986Z,92384.94
2023-12-28T00:14:35.717Z,92394.16
2023-12-28T00:17:02.375Z,92397.81
2023-12-28T00:19:29.183Z,92397.53
2023-12-28T00:21:55.945Z,92393.66
2023-12-28T00:24:22.907Z,92405.09
2023-12-28T00:26:49.935Z,92393.22
2023-12-28T00:29:16.693Z,92407.66
2023-12-28T00:31:43.591Z,92400.19
2023-12-28T00:34:10.528Z,92402.06
2023-12-28T00:36:40.286Z,92404.53
2023-12-28T00:39:07.017Z,92409.69
2023-12-28T00:41:33.748Z,92408.38
2023-12-28T00:44:01.785Z,92408.44
2023-12-28T00:46:28.588Z,92403.69
2023-12-28T00:48:56.702Z,92406.63
2023-12-28T00:51:23.540Z,92406.00
2023-12-28T00:53:51.303Z,92403.56
2023-12-28T00:56:18.210Z,92412.78
2023-12-28T00:58:45.151Z,92406.34
2023-12-28T01:01:12.216Z,92393.66
2023-12-28T01:03:39.149Z,92404.94
2023-12-28T01:06:06.667Z,92403.28
2023-12-28T01:08:35.214Z,92400.19
2023-12-28T01:11:03.057Z,92401.09
2023-12-28T01:13:30.138Z,92394.09
2023-12-28T01:15:56.943Z,92405.19
2023-12-28T01:18:23.828Z,92406.81
2023-12-28T01:20:50.610Z,92399.84
2023-12-28T01:23:17.385Z,92401.16
2023-12-28T01:25:44.116Z,92398.28
2023-12-28T01:28:10.903Z,92400.06
2023-12-28T01:30:38.231Z,92394.09
2023-12-28T01:33:05.701Z,92394.91
2023-12-28T01:35:32.570Z,92390.09
2023-12-28T01:38:01.601Z,92388.44
2023-12-28T01:40:28.590Z,92389.97
2023-12-28T01:42:55.397Z,92390.75
2023-12-28T01:45:22.233Z,92387.59
2023-12-28T01:47:52.703Z,92389.91
2023-12-28T01:50:20.071Z,92393.91
2023-12-28T01:52:47.874Z,92384.13
2023-12-28T01:55:14.899Z,92387.41
2023-12-28T01:57:41.818Z,92384.88
2023-12-28T02:00:09.132Z,92387.53
2023-12-28T02:02:37.252Z,92386.28
2023-12-28T02:05:04.488Z,92387.66
2023-12-28T02:07:33.379Z,92390.00
2023-12-28T02:10:00.228Z,92390.50
2023-12-28T02:12:27.121Z,92397.03
2023-12-28T02:14:53.852Z,92394.47
2023-12-28T02:17:34.512Z,92395.06
2023-12-28T02:20:02.161Z,92393.41
2023-12-28T02:22:38.949Z,92389.50
2023-12-28T02:25:07.810Z,92389.88
2023-12-28T02:27:44.861Z,92379.28
2023-12-28T02:30:12.826Z,92396.56
2023-12-28T02:32:53.677Z,92404.50
2023-12-28T02:35:29.658Z,92402.31
2023-12-28T02:37:59.616Z,92390.41
2023-12-28T02:40:28.436Z,92400.34
2023-12-28T02:42:55.644Z,92397.69
2023-12-28T02:45:22.556Z,92397.91
2023-12-28T02:47:49.357Z,92397.59
2023-12-28T02:50:16.168Z,92405.38
2023-12-28T02:52:42.891Z,92395.44
2023-12-28T02:55:10.291Z,92388.69
2023-12-28T02:57:39.115Z,92393.41
2023-12-28T03:00:07.049Z,92391.47
2023-12-28T03:02:34.056Z,92391.75
2023-12-28T03:05:00.940Z,92384.47
2023-12-28T03:07:27.856Z,92388.84
2023-12-28T03:09:54.562Z,92382.59
2023-12-28T03:12:21.320Z,92388.41
2023-12-28T03:14:48.024Z,92380.63
2023-12-28T03:17:15.033Z,92370.03
2023-12-28T03:19:41.993Z,92384.50
2023-12-28T03:22:08.852Z,92378.63
2023-12-28T03:24:37.585Z,92367.47
2023-12-28T03:27:05.613Z,92381.88
2023-12-28T03:29:32.618Z,92380.50
2023-12-28T03:32:00.225Z,92380.41
2023-12-28T03:34:31.382Z,92373.94
2023-12-28T03:37:01.055Z,92376.16
2023-12-28T03:39:27.827Z,92391.00
2023-12-28T03:41:54.784Z,92383.09
2023-12-28T03:44:22.208Z,92386.59
2023-12-28T03:46:50.238Z,92389.94
2023-12-28T03:49:21.340Z,92395.06
2023-12-28T03:51:50.243Z,92388.34
2023-12-28T03:54:18.005Z,92385.50
2023-12-28T03:56:45.170Z,92396.31
2023-12-28T03:59:12.044Z,92393.88
2023-12-28T04:01:38.927Z,92383.97
2023-12-28T04:04:06.035Z,92389.13
2023-12-28T04:06:33.343Z,92390.81
2023-12-28T04:09:00.154Z,92395.00
2023-12-28T04:11:26.883Z,92390.84
2023-12-28T04:13:53.657Z,92393.94
2023-12-28T04:16:20.358Z,92392.34
2023-12-28T04:18:47.405Z,92395.69
2023-12-28T04:21:15.076Z,92390.06
2023-12-28T04:23:42.830Z,92399.50
2023-12-28T04:26:09.857Z,92396.97
2023-12-28T04:28:36.950Z,92398.88
2023-12-28T04:31:08.001Z,92391.31
2023-12-28T04:33:36.579Z,92373.34
2023-12-28T04:36:07.351Z,92406.63
2023-12-28T04:38:34.295Z,92396.53
2023-12-28T04:41:02.126Z,92395.38
2023-12-28T04:43:29.156Z,92385.38
2023-12-28T04:45:55.989Z,92394.13
2023-12-28T04:48:29.618Z,92391.97
2023-12-28T04:50:56.465Z,92388.03
2023-12-28T04:53:23.238Z,92395.84
2023-12-28T04:55:49.940Z,92396.47
2023-12-28T04:58:16.798Z,92396.84
2023-12-28T05:00:44.054Z,92399.66
2023-12-28T05:03:10.946Z,92391.19
2023-12-28T05:05:37.699Z,92391.41
2023-12-28T05:08:06.130Z,92378.44
2023-12-28T05:10:32.825Z,92393.09
2023-12-28T05:13:02.020Z,92388.16
2023-12-28T05:15:30.302Z,92392.31
2023-12-28T05:17:58.915Z,92388.38
2023-12-28T05:20:26.050Z,92390.72
2023-12-28T05:22:52.739Z,92398.78
2023-12-28T05:25:19.427Z,92398.00
2023-12-28T05:27:46.262Z,92400.03
2023-12-28T05:30:13.683Z,92389.84
2023-12-28T05:32:40.866Z,92395.25
2023-12-28T05:35:08.500Z,92386.91
2023-12-28T05:37:35.442Z,92395.91
2023-12-28T05:40:02.346Z,92398.03
2023-12-28T05:42:29.208Z,92406.34
2023-12-28T05:44:55.982Z,92399.72
2023-12-28T05:47:22.748Z,92413.13
2023-12-28T05:49:49.808Z,92408.97
2023-12-28T05:52:19.852Z,92407.13
2023-12-28T05:54:47.041Z,92403.66
2023-12-28T05:57:13.929Z,92412.19
2023-12-28T05:59:43.442Z,92414.97
2023-12-28T06:02:10.272Z,92415.81
2023-12-28T06:04:37.200Z,92415.59
2023-12-28T06:07:06.096Z,92402.97
2023-12-28T06:09:33.878Z,92407.03
2023-12-28T06:12:01.123Z,92402.91
2023-12-28T06:14:28.110Z,92406.16
2023-12-28T06:16:54.981Z,92401.81
2023-12-28T06:19:22.104Z,92403.06
2023-12-28T06:21:52.515Z,92384.63
2023-12-28T06:24:19.335Z,92412.03
2023-12-28T06:26:46.576Z,92405.09
2023-12-28T06:29:13.473Z,92406.56
2023-12-28T06:31:41.993Z,92405.16
2023-12-28T06:34:09.603Z,92411.38
2023-12-28T06:36:36.921Z,92409.31
2023-12-28T06:39:04.687Z,92411.66
2023-12-28T06:41:31.496Z,92411.22
2023-12-28T06:43:58.184Z,92403.78
2023-12-28T06:46:24.922Z,92394.22
2023-12-28T06:48:51.773Z,92392.84
2023-12-28T06:51:23.856Z,92398.94
2023-12-28T06:53:51.243Z,92403.16
2023-12-28T06:56:18.918Z,92411.81
2023-12-28T06:58:45.928Z,92407.19
2023-12-28T07:01:13.766Z,92400.22
2023-12-28T07:03:42.226Z,92407.88
2023-12-28T07:06:09.908Z,92406.31
2023-12-28T07:08:37.720Z,92410.47
2023-12-28T07:11:05.608Z,92412.00
2023-12-28T07:13:33.336Z,92415.41
2023-12-28T07:16:01.138Z,92406.72
2023-12-28T07:18:29.446Z,92409.03
2023-12-28T07:20:56.830Z,92412.63
2023-12-28T07:23:23.515Z,92411.00
2023-12-28T07:25:50.848Z,92415.09
2023-12-28T07:28:18.108Z,92418.31
2023-12-28T07:30:44.943Z,92420.97
2023-12-28T07:33:12.210Z,92420.53
2023-12-28T07:35:45.664Z,92426.53
2023-12-28T07:38:13.086Z,92431.84
2023-12-28T07:40:40.255Z,92412.19
2023-12-28T07:43:07.068Z,92431.03
2023-12-28T07:45:35.996Z,92426.13
2023-12-28T07:48:03.721Z,92434.59
2023-12-28T07:50:30.623Z,92435.47
2023-12-28T07:52:57.814Z,92432.44
2023-12-28T07:55:27.291Z,92433.19
2023-12-28T07:57:55.528Z,92446.03
2023-12-28T08:00:22.434Z,92442.13
2023-12-28T08:02:49.145Z,92442.06
2023-12-28T08:05:15.922Z,92444.00
2023-12-28T08:07:42.648Z,92433.25
2023-12-28T08:10:09.843Z,92437.19
2023-12-28T08:12:37.616Z,92433.78
2023-12-28T08:15:04.910Z,92427.78
2023-12-28T08:17:32.728Z,92429.72
2023-12-28T08:20:00.971Z,92426.88
2023-12-28T08:22:29.367Z,92417.53
2023-12-28T08:24:56.153Z,92423.63
2023-12-28T08:27:22.963Z,92424.00
2023-12-28T08:29:50.046Z,92422.06
2023-12-28T08:32:18.480Z,92405.44
2023-12-28T08:34:45.693Z,92416.81
2023-12-28T08:37:12.608Z,92415.94
2023-12-28T08:39:41.079Z,92408.41
2023-12-28T08:42:09.011Z,92407.72
2023-12-28T08:44:37.857Z,92407.34
2023-12-28T08:47:05.258Z,92411.81
2023-12-28T08:49:32.082Z,92410.06
2023-12-28T08:51:58.823Z,92397.94
2023-12-28T08:54:25.507Z,92397.94
2023-12-28T08:56:53.713Z,92397.59
2023-12-28T08:59:22.525Z,92389.06
2023-12-28T09:01:49.677Z,92391.91
2023-12-28T09:04:20.768Z,92391.22
2023-12-28T09:06:47.564Z,92390.22
2023-12-28T09:09:14.361Z,92382.34
2023-12-28T09:11:41.076Z,92380.06
2023-12-28T09:14:07.788Z,92373.56
2023-12-28T09:16:34.529Z,92382.34
2023-12-28T09:19:01.376Z,92378.19
2023-12-28T09:21:28.399Z,92370.19
2023-12-28T09:23:55.164Z,92365.47
2023-12-28T09:26:21.816Z,92362.78
2023-12-28T09:28:50.501Z,92358.09
2023-12-28T09:31:17.575Z,92350.19
2023-12-28T09:33:44.890Z,92355.47
2023-12-28T09:36:14.331Z,92320.28
2023-12-28T09:38:41.180Z,92341.31
2023-12-28T09:41:15.480Z,92337.75
2023-12-28T09:43:56.672Z,92326.88
2023-12-28T09:46:24.402Z,92327.91
2023-12-28T09:48:51.351Z,92326.63
2023-12-28T09:51:19.271Z,92312.53
2023-12-28T09:53:46.217Z,92311.63
2023-12-28T09:56:15.596Z,92313.25
2023-12-28T09:58:43.773Z,92298.28
2023-12-28T10:01:11.459Z,92301.00
2023-12-28T10:03:38.773Z,92296.22
2023-12-28T10:06:05.838Z,92277.84
2023-12-28T10:08:33.686Z,92288.78
2023-12-28T10:11:02.278Z,92282.09
2023-12-28T10:13:30.361Z,92271.19
2023-12-28T10:16:00.452Z,92272.53
2023-12-28T10:18:27.595Z,92264.13
2023-12-28T10:20:56.105Z,92260.63
2023-12-28T10:23:23.212Z,92253.66
2023-12-28T10:25:54.195Z,92252.38
2023-12-28T10:28:21.108Z,92251.69
2023-12-28T10:30:47.938Z,92240.63
2023-12-28T10:33:15.869Z,92240.75
2023-12-28T10:35:44.726Z,92217.03
2023-12-28T10:38:14.985Z,92227.16
2023-12-28T10:40:43.012Z,92220.03
2023-12-28T10:43:15.351Z,92222.56
2023-12-28T10:45:44.531Z,92216.78
2023-12-28T10:48:13.155Z,92212.13
2023-12-28T10:50:48.015Z,92208.75
2023-12-28T10:53:32.607Z,92197.44
2023-12-28T10:56:12.957Z,92188.97
2023-12-28T10:59:08.306Z,92190.44
2023-12-28T11:01:40.915Z,92184.09
2023-12-28T11:04:26.235Z,92174.91
2023-12-28T11:06:53.892Z,92174.31
2023-12-28T11:09:23.151Z,92165.63
2023-12-28T11:11:52.499Z,92159.19
2023-12-28T11:14:19.485Z,92155.22
2023-12-28T11:16:46.942Z,92152.31
2023-12-28T11:19:14.886Z,92147.56
2023-12-28T11:21:42.682Z,92141.09
2023-12-28T11:24:09.982Z,92151.97
2023-12-28T11:26:36.815Z,92150.28
2023-12-28T11:29:05.046Z,92142.03
2023-12-28T11:31:36.367Z,92135.25
2023-12-28T11:34:06.081Z,92129.72
2023-12-28T11:36:37.811Z,92137.91
2023-12-28T11:39:07.890Z,92130.06
2023-12-28T11:41:37.359Z,92123.88
2023-12-28T11:44:07.339Z,92122.09
2023-12-28T11:46:36.888Z,92110.06
2023-12-28T11:49:10.767Z,92113.28
2023-12-28T11:51:40.266Z,92107.69
2023-12-28T11:54:07.930Z,92111.38
2023-12-28T11:56:35.166Z,92094.91
2023-12-28T11:59:03.270Z,92101.97
2023-12-28T12:01:30.059Z,92100.63
2023-12-28T12:03:57.064Z,92099.34
2023-12-28T12:06:25.381Z,92101.03
2023-12-28T12:08:52.186Z,92101.19
2023-12-28T12:11:19.823Z,92090.13
2023-12-28T12:13:47.262Z,92085.94
2023-12-28T12:16:17.301Z,92088.94
2023-12-28T12:18:44.683Z,92089.94
2023-12-28T12:21:11.625Z,92091.34
2023-12-28T12:23:38.917Z,92081.75
2023-12-28T12:26:08.865Z,92086.25
2023-12-28T12:28:36.798Z,92083.25
2023-12-28T12:31:04.507Z,92077.97
2023-12-28T12:33:32.600Z,92083.00
2023-12-28T12:35:59.735Z,92087.44
2023-12-28T12:38:26.525Z,92091.69
2023-12-28T12:40:54.128Z,92091.84
2023-12-28T12:43:21.723Z,92096.19
2023-12-28T12:45:49.503Z,92089.56
2023-12-28T12:48:17.030Z,92085.16
2023-12-28T12:50:45.126Z,92089.06
2023-12-28T12:53:12.454Z,92086.34
2023-12-28T12:55:47.594Z,92079.97
2023-12-28T12:58:17.576Z,92091.69
2023-12-28T13:00:46.685Z,92090.91
2023-12-28T13:03:13.639Z,92096.72
2023-12-28T13:05:40.800Z,92094.03
2023-12-28T13:08:09.240Z,92093.28
2023-12-28T13:10:35.994Z,92092.06
2023-12-28T13:13:03.449Z,92096.69
2023-12-28T13:15:30.408Z,92101.31
2023-12-28T13:17:57.243Z,92097.50
2023-12-28T13:20:23.948Z,92099.69
2023-12-28T13:22:50.709Z,92099.78
2023-12-28T13:25:17.521Z,92101.59
2023-12-28T13:27:44.742Z,92095.84
2023-12-28T13:30:13.392Z,92102.94
2023-12-28T13:32:42.217Z,92095.22
2023-12-28T13:35:11.287Z,92102.44
2023-12-28T13:37:37.989Z,92099.56
2023-12-28T13:40:06.192Z,92105.97
2023-12-28T13:42:32.940Z,92104.31
2023-12-28T13:44:59.655Z,92097.56
2023-12-28T13:47:26.506Z,92100.22
2023-12-28T13:49:53.366Z,92096.41
2023-12-28T13:52:20.169Z,92085.78
2023-12-28T13:54:46.937Z,92078.06
2023-12-28T13:57:14.175Z,92083.56
2023-12-28T13:59:40.892Z,92086.81
2023-12-28T14:02:07.584Z,92090.66
2023-12-28T14:04:34.480Z,92092.47
2023-12-28T14:07:01.427Z,92089.94
2023-12-28T14:09:28.282Z,92091.00
2023-12-28T14:11:56.465Z,92101.28
2023-12-28T14:14:23.283Z,92097.50
2023-12-28T14:16:50.027Z,92100.84
2023-12-28T14:19:16.866Z,92102.97
2023-12-28T14:21:44.281Z,92101.34
2023-12-28T14:24:11.566Z,92099.19
2023-12-28T14:26:45.566Z,92104.00
2023-12-28T14:29:16.654Z,92104.53
2023-12-28T14:31:53.529Z,92099.13
2023-12-28T14:34:21.410Z,92106.84
2023-12-28T14:36:51.292Z,92086.66
2023-12-28T14:39:22.500Z,92098.88
2023-12-28T14:41:49.310Z,92108.50
2023-12-28T14:44:16.090Z,92097.38
2023-12-28T14:46:42.804Z,92100.25
2023-12-28T14:49:09.737Z,92108.03
2023-12-28T14:51:36.630Z,92103.31
2023-12-28T14:54:03.701Z,92112.00
2023-12-28T14:56:39.860Z,92111.47
2023-12-28T14:59:11.732Z,92112.44
2023-12-28T15:01:38.515Z,92117.25
2023-12-28T15:04:05.552Z,92112.88
2023-12-28T15:06:34.520Z,92121.56
2023-12-28T15:09:01.254Z,92116.94
2023-12-28T15:11:40.830Z,92112.63
2023-12-28T15:14:22.223Z,92110.81
2023-12-28T15:16:49.702Z,92104.72
2023-12-28T15:19:17.224Z,92117.75
2023-12-28T15:21:44.765Z,92125.34
2023-12-28T15:24:12.083Z,92117.00
2023-12-28T15:26:38.931Z,92126.66
2023-12-28T15:29:05.760Z,92124.31
2023-12-28T15:31:32.633Z,92131.72
2023-12-28T15:33:59.575Z,92123.69
2023-12-28T15:36:26.353Z,92121.31
2023-12-28T15:38:53.034Z,92128.09
2023-12-28T15:41:20.017Z,92126.16
2023-12-28T15:43:47.175Z,92127.59
2023-12-28T15:46:14.994Z,92130.91
2023-12-28T15:48:45.157Z,92127.50
2023-12-28T15:51:12.094Z,92122.19
2023-12-28T15:53:38.802Z,92113.28
2023-12-28T15:56:16.264Z,92119.06
2023-12-28T15:58:46.462Z,92122.56
2023-12-28T16:01:13.530Z,92123.00
2023-12-28T16:03:40.578Z,92123.91
2023-12-28T16:06:09.350Z,92124.53
2023-12-28T16:08:37.402Z,92119.53
2023-12-28T16:11:06.792Z,92133.06
2023-12-28T16:13:35.939Z,92136.00
2023-12-28T16:16:06.924Z,92139.63
2023-12-28T16:18:36.165Z,92131.47
2023-12-28T16:21:03.250Z,92125.16
2023-12-28T16:23:30.328Z,92140.94
2023-12-28T16:25:58.766Z,92139.84
2023-12-28T16:28:25.462Z,92136.91
2023-12-28T16:30:52.256Z,92135.06
2023-12-28T16:33:20.002Z,92122.22
2023-12-28T16:35:46.811Z,92139.19
2023-12-28T16:38:13.585Z,92140.25
2023-12-28T16:40:40.313Z,92143.09
2023-12-28T16:43:07.760Z,92143.66
2023-12-28T16:45:34.581Z,92147.28
2023-12-28T16:48:03.208Z,92156.22
2023-12-28T16:50:30.527Z,92150.00
2023-12-28T16:52:57.286Z,92152.81
2023-12-28T16:55:27.092Z,92145.41
2023-12-28T16:57:54.452Z,92153.22
2023-12-28T17:00:21.297Z,92149.47
2023-12-28T17:02:50.525Z,92150.78
2023-12-28T17:05:19.124Z,92149.72
2023-12-28T17:07:46.656Z,92152.97
2023-12-28T17:10:14.799Z,92153.53
2023-12-28T17:12:44.801Z,92151.66
2023-12-28T17:15:13.455Z,92152.34
2023-12-28T17:17:46.146Z,92142.38
2023-12-28T17:20:15.367Z,92150.06
2023-12-28T17:22:51.543Z,92157.56
2023-12-28T17:25:52.599Z,92164.25
2023-12-28T17:28:24.463Z,92160.38
2023-12-28T17:30:57.098Z,92159.03
2023-12-28T17:33:25.593Z,92156.75
2023-12-28T17:35:52.612Z,92154.56
2023-12-28T17:38:19.659Z,92154.09
2023-12-28T17:40:49.092Z,92156.13
2023-12-28T17:43:38.719Z,92159.28
2023-12-28T17:46:27.459Z,92143.22
2023-12-28T17:48:59.567Z,92142.47
2023-12-28T17:51:29.872Z,92144.00
2023-12-28T17:53:56.958Z,92147.81
2023-12-28T17:56:23.676Z,92149.31
2023-12-28T17:58:50.748Z,92146.84
2023-12-28T18:01:18.854Z,92147.25
2023-12-28T18:03:47.311Z,92139.94
2023-12-28T18:06:16.964Z,92141.75
2023-12-28T18:08:43.655Z,92137.16
2023-12-28T18:11:10.395Z,92128.94
2023-12-28T18:13:37.226Z,92132.13
2023-12-28T18:16:07.128Z,92131.06
2023-12-28T18:18:35.584Z,92130.94
2023-12-28T18:21:02.504Z,92132.31
2023-12-28T18:23:30.275Z,92130.06
2023-12-28T18:25:59.410Z,92134.38
2023-12-28T18:28:26.155Z,92138.03
2023-12-28T18:30:53.513Z,92134.84
2023-12-28T18:33:24.896Z,92129.44
2023-12-28T18:35:51.891Z,92129.91
2023-12-28T18:38:20.964Z,92135.19
2023-12-28T18:40:48.954Z,92138.88
2023-12-28T18:43:16.250Z,92141.50
2023-12-28T18:45:47.000Z,92132.69
2023-12-28T18:48:15.583Z,92132.66
2023-12-28T18:50:43.263Z,92117.69
2023-12-28T18:53:11.372Z,92116.91
2023-12-28T18:55:39.774Z,92120.09
2023-12-28T18:58:10.067Z,92117.00
2023-12-28T19:00:38.165Z,92116.84
2023-12-28T19:03:05.754Z,92117.59
2023-12-28T19:05:34.296Z,92103.06
2023-12-28T19:08:01.640Z,92116.34
2023-12-28T19:10:28.770Z,92115.16
2023-12-28T19:12:56.235Z,92117.00
2023-12-28T19:15:23.062Z,92108.75
2023-12-28T19:17:49.976Z,92116.09
2023-12-28T19:20:16.802Z,92119.16
2023-12-28T19:22:43.737Z,92121.44
2023-12-28T19:25:11.429Z,92123.13
2023-12-28T19:27:38.208Z,92119.19
2023-12-28T19:30:07.559Z,92109.25
2023-12-28T19:32:34.497Z,92113.38
2023-12-28T19:35:01.667Z,92110.94
2023-12-28T19:37:28.536Z,92105.88
2023-12-28T19:39:55.254Z,92100.22
2023-12-28T19:42:22.019Z,92106.66
2023-12-28T19:44:50.439Z,92107.88
2023-12-28T19:47:17.218Z,92106.06
2023-12-28T19:49:45.915Z,92104.97
2023-12-28T19:52:14.806Z,92104.22
2023-12-28T19:54:41.754Z,92106.97
2023-12-28T19:57:08.750Z,92101.91
2023-12-28T19:59:35.401Z,92098.84
2023-12-28T20:02:03.407Z,92101.47
2023-12-28T20:04:30.182Z,92107.56
2023-12-28T20:06:57.722Z,92105.28
2023-12-28T20:09:27.428Z,92100.50
2023-12-28T20:11:55.467Z,92098.06
2023-12-28T20:14:26.443Z,92103.91
2023-12-28T20:16:53.366Z,92103.91
2023-12-28T20:19:25.308Z,92093.19
2023-12-28T20:21:54.027Z,92096.66
2023-12-28T20:24:22.518Z,92095.31
2023-12-28T20:26:49.493Z,92086.16
2023-12-28T20:29:16.286Z,92089.34
2023-12-28T20:31:44.499Z,92080.19
2023-12-28T20:34:11.889Z,92086.88
2023-12-28T20:36:38.848Z,92090.53
2023-12-28T20:39:07.343Z,92085.31
2023-12-28T20:41:34.349Z,92083.34
2023-12-28T20:44:02.383Z,92087.97
2023-12-28T20:46:30.157Z,92089.63
2023-12-28T20:48:58.346Z,92083.66
2023-12-28T20:51:26.797Z,92084.16
2023-12-28T20:53:56.241Z,92080.91
2023-12-28T20:56:23.395Z,92076.47
2023-12-28T20:58:51.330Z,92082.84
2023-12-28T21:01:18.202Z,92072.81
2023-12-28T21:03:46.162Z,92071.53
2023-12-28T21:06:12.893Z,92074.72
2023-12-28T21:08:39.573Z,92070.34
2023-12-28T21:11:06.382Z,92065.91
2023-12-28T21:13:40.000Z,92061.31
2023-12-28T21:16:08.517Z,92061.94
2023-12-28T21:18:36.026Z,92063.47
2023-12-28T21:21:10.236Z,92056.44
2023-12-28T21:23:40.740Z,92053.25
2023-12-28T21:26:07.695Z,92053.69
2023-12-28T21:28:34.625Z,92052.47
2023-12-28T21:31:01.823Z,92045.88
2023-12-28T21:33:28.876Z,92047.09
2023-12-28T21:35:55.940Z,92052.13
2023-12-28T21:38:22.682Z,92050.72
2023-12-28T21:40:49.396Z,92053.66
2023-12-28T21:43:16.173Z,92053.00
2023-12-28T21:45:43.628Z,92053.66
2023-12-28T21:48:10.571Z,92047.66
2023-12-28T21:50:38.132Z,92054.09
2023-12-28T21:53:05.449Z,92043.88
2023-12-28T21:55:32.155Z,92047.34
2023-12-28T21:58:00.128Z,92048.13
2023-12-28T22:00:27.082Z,92046.00
2023-12-28T22:02:53.792Z,92042.00
2023-12-28T22:05:20.486Z,92041.56
2023-12-28T22:07:47.298Z,92038.38
2023-12-28T22:10:14.267Z,92032.72
2023-12-28T22:12:41.086Z,92037.75
2023-12-28T22:15:08.442Z,92038.66
2023-12-28T22:17:36.503Z,92028.09
2023-12-28T22:20:08.651Z,92025.22
2023-12-28T22:22:36.673Z,92023.97
2023-12-28T22:25:06.141Z,92013.91
2023-12-28T22:27:32.919Z,92009.66
2023-12-28T22:29:59.608Z,92010.22
2023-12-28T22:32:26.713Z,91999.41
2023-12-28T22:34:53.680Z,91996.69
2023-12-28T22:37:20.464Z,92007.19
2023-12-28T22:39:47.208Z,91997.75
2023-12-28T22:42:21.307Z,92001.50
2023-12-28T22:44:48.014Z,92002.88
2023-12-28T22:47:15.020Z,91997.31
2023-12-28T22:49:42.195Z,91996.53
2023-12-28T22:52:10.264Z,91993.53
2023-12-28T22:54:39.613Z,91984.69
2023-12-28T22:57:06.388Z,91972.88
2023-12-28T22:59:33.157Z,91983.00
2023-12-28T23:01:59.987Z,91978.59
2023-12-28T23:04:26.731Z,91972.22
2023-12-28T23:06:53.443Z,91977.56
2023-12-28T23:09:20.796Z,91979.88
2023-12-28T23:11:47.500Z,91975.44
2023-12-28T23:14:14.217Z,91981.09
2023-12-28T23:16:41.010Z,91972.09
2023-12-28T23:19:07.842Z,91971.44
2023-12-28T23:21:36.025Z,91969.03
2023-12-28T23:24:02.787Z,91965.91
2023-12-28T23:26:29.617Z,91963.00
2023-12-28T23:28:56.380Z,91965.75
2023-12-28T23:31:26.038Z,91963.28
2023-12-28T23:33:53.515Z,91956.25
2023-12-28T23:36:21.250Z,91957.63
2023-12-28T23:38:49.051Z,91954.38
2023-12-28T23:41:15.831Z,91948.44
2023-12-28T23:43:42.630Z,91948.56
2023-12-28T23:46:09.475Z,91943.25
2023-12-28T23:48:36.505Z,91937.91
2023-12-28T23:51:06.809Z,91943.88
2023-12-28T23:53:33.465Z,91938.06
2023-12-28T23:56:00.209Z,91941.22
2023-12-28T23:58:28.599Z,91933.50
